Time;durP1;ratioP1;P1;durP2;ratioP2;P2;SDS_P1;SDS_P2;PMS_P1;PMS_P2;Temp;Humidity;BMP_temperature;BMP_pressure;BME280_temperature;BME280_humidity;BME280_pressure;Samples;Min_cycle;Max_cycle;Signal;HPM_P1;HPM_P2
2022/12/24 00:00:16;;;;;;;0.50;0.50;;;;;10.00;95434.00;;;;5053529;28;20220;-57
2022/12/24 00:02:43;;;;;;;0.70;0.70;;;;;10.30;95430.00;;;;5051795;28;20728;-57
2022/12/24 00:05:11;;;;;;;1.17;0.90;;;;;10.20;95436.00;;;;5053396;28;20192;-57
2022/12/24 00:07:38;;;;;;;0.50;0.50;;;;;10.30;95440.00;;;;5053039;28;20196;-57
2022/12/24 00:10:07;;;;;;;2.27;1.27;;;;;10.30;95448.00;;;;5053569;28;20270;-57
2022/12/24 00:12:34;;;;;;;1.00;1.00;;;;;10.20;95437.00;;;;5053144;28;20214;-57
2022/12/24 00:15:02;;;;;;;0.50;0.50;;;;;10.20;95454.00;;;;5053816;28;20238;-57
2022/12/24 00:17:30;;;;;;;1.43;1.33;;;;;10.10;95446.00;;;;5053440;28;20319;-57
2022/12/24 00:19:58;;;;;;;0.73;0.73;;;;;9.90;95445.00;;;;5053114;28;20285;-58
2022/12/24 00:22:25;;;;;;;0.70;0.70;;;;;10.20;95444.00;;;;5053182;28;20533;-57
2022/12/24 00:24:53;;;;;;;0.50;0.50;;;;;10.20;95438.00;;;;5051583;28;20196;-57
2022/12/24 00:27:20;;;;;;;0.57;0.57;;;;;10.10;95449.00;;;;5052766;28;20215;-57
2022/12/24 00:29:48;;;;;;;5.03;0.77;;;;;10.10;95447.00;;;;5052732;28;20269;-57
2022/12/24 00:32:15;;;;;;;0.77;0.77;;;;;10.20;95436.00;;;;5052771;28;20224;-57
2022/12/24 00:34:44;;;;;;;1.13;1.10;;;;;9.90;95441.00;;;;5053201;28;20196;-57
2022/12/24 00:37:11;;;;;;;0.83;0.83;;;;;9.90;95436.00;;;;5053070;28;20213;-57
2022/12/24 00:39:38;;;;;;;1.70;1.23;;;;;9.90;95445.00;;;;5052876;28;20219;-57
2022/12/24 00:42:06;;;;;;;0.60;0.60;;;;;9.80;95440.00;;;;5052990;28;20250;-57
2022/12/24 00:44:33;;;;;;;0.93;0.93;;;;;9.70;95445.00;;;;5053169;28;20196;-58
2022/12/24 00:47:01;;;;;;;0.67;0.67;;;;;9.60;95435.00;;;;5052884;28;20196;-57
2022/12/24 00:49:28;;;;;;;0.60;0.60;;;;;9.60;95431.00;;;;5052646;28;20629;-57
2022/12/24 00:51:57;;;;;;;1.60;1.07;;;;;9.50;95434.00;;;;5052573;28;20224;-58
2022/12/24 00:54:24;;;;;;;0.60;0.60;;;;;9.50;95433.00;;;;5052609;28;20318;-58
2022/12/24 00:56:51;;;;;;;0.70;0.70;;;;;9.50;95448.00;;;;5052557;28;20654;-55
2022/12/24 00:59:19;;;;;;;0.83;0.83;;;;;9.50;95458.00;;;;5052511;28;20216;-57
2022/12/24 01:01:46;;;;;;;0.80;0.80;;;;;9.50;95452.00;;;;5053363;28;20238;-57
2022/12/24 01:07:00;;;;;;;1.00;1.00;;;;;9.40;95481.00;;;;5056489;28;20253;-57
2022/12/24 01:09:27;;;;;;;1.00;1.00;;;;;9.30;95492.00;;;;5056134;28;20212;-57
2022/12/24 01:11:54;;;;;;;0.43;0.43;;;;;9.50;95493.00;;;;5056612;28;20216;-57
2022/12/24 01:14:22;;;;;;;0.73;0.73;;;;;9.60;95501.00;;;;5056097;28;20199;-57
2022/12/24 01:16:49;;;;;;;0.60;0.60;;;;;9.30;95496.00;;;;5055984;28;20200;-57
2022/12/24 01:19:17;;;;;;;1.37;1.00;;;;;9.30;95494.00;;;;5056412;28;20215;-57
2022/12/24 01:21:44;;;;;;;0.50;0.50;;;;;9.40;95513.00;;;;5056168;28;20582;-57
2022/12/24 01:24:16;;;;;;;0.57;0.57;;;;;9.20;95516.00;;;;5055880;28;20196;-57
2022/12/24 01:26:44;;;;;;;0.50;0.50;;;;;9.20;95523.00;;;;5056224;28;20188;-57
2022/12/24 01:29:11;;;;;;;0.60;0.60;;;;;9.10;95522.00;;;;5055928;28;20694;-57
2022/12/24 01:31:39;;;;;;;0.50;0.50;;;;;8.90;95520.00;;;;5056438;28;20265;-57
2022/12/24 01:34:06;;;;;;;0.80;0.80;;;;;9.10;95528.00;;;;5056183;28;20192;-57
2022/12/24 01:36:34;;;;;;;0.93;0.90;;;;;9.10;95541.00;;;;5056280;28;20266;-57
2022/12/24 01:39:01;;;;;;;0.50;0.50;;;;;9.10;95527.00;;;;5055467;28;20196;-57
2022/12/24 01:44:22;;;;;;;0.57;0.57;;;;;9.40;95545.00;;;;5055728;28;20193;-57
2022/12/24 01:46:54;;;;;;;0.83;0.83;;;;;9.30;95553.00;;;;5055694;28;20189;-57
2022/12/24 01:49:22;;;;;;;0.57;0.57;;;;;9.40;95564.00;;;;5055592;28;20219;-57
2022/12/24 01:51:54;;;;;;;0.50;0.50;;;;;9.20;95548.00;;;;5055968;28;20659;-57
2022/12/24 01:54:25;;;;;;;0.50;0.50;;;;;9.10;95561.00;;;;5055347;28;20250;-57
2022/12/24 01:56:58;;;;;;;1.90;1.13;;;;;9.20;95551.00;;;;5055878;28;20188;-57
2022/12/24 01:59:25;;;;;;;0.50;0.50;;;;;9.10;95549.00;;;;5055142;28;20207;-58
2022/12/24 02:01:54;;;;;;;0.70;0.70;;;;;9.10;95567.00;;;;5055662;28;20192;-57
2022/12/24 02:04:34;;;;;;;0.70;0.70;;;;;9.20;95586.00;;;;5055126;28;20188;-58
2022/12/24 02:07:01;;;;;;;2.00;1.43;;;;;9.20;95590.00;;;;5055364;28;20268;-57
2022/12/24 02:09:29;;;;;;;1.13;1.07;;;;;9.40;95596.00;;;;5054945;28;20220;-57
2022/12/24 02:11:59;;;;;;;1.27;1.17;;;;;9.30;95584.00;;;;5055605;28;20212;-57
2022/12/24 02:14:27;;;;;;;0.60;0.60;;;;;9.30;95576.00;;;;5054946;28;20227;-57
2022/12/24 02:17:01;;;;;;;0.50;0.50;;;;;9.30;95575.00;;;;5053833;28;20246;-57
2022/12/24 02:20:23;;;;;;;2.10;0.93;;;;;9.40;95594.00;;;;5054855;28;20259;-57
2022/12/24 02:23:09;;;;;;;0.60;0.60;;;;;9.70;95599.00;;;;4993682;28;20533;-57
2022/12/24 02:25:57;;;;;;;0.90;0.90;;;;;9.60;95611.00;;;;4993551;28;20735;-57
2022/12/24 02:28:42;;;;;;;0.50;0.50;;;;;9.50;95624.00;;;;5037892;28;20212;-58
2022/12/24 02:31:16;;;;;;;2.57;1.13;;;;;9.50;95623.00;;;;5054617;28;20188;-57
2022/12/24 02:33:49;;;;;;;9.00;1.37;;;;;9.40;95611.00;;;;5055016;28;20200;-57
2022/12/24 02:36:23;;;;;;;1.93;1.03;;;;;9.40;95616.00;;;;5054822;28;20184;-57
2022/12/24 02:38:57;;;;;;;3.50;0.90;;;;;9.60;95628.00;;;;5054698;28;20639;-57
2022/12/24 02:42:04;;;;;;;0.77;0.77;;;;;9.70;95629.00;;;;5054665;28;20176;-58
2022/12/24 02:44:16;;;;;;;1.63;1.53;;;;;9.40;95629.00;;;;5054357;28;20258;-58
2022/12/24 02:46:45;;;;;;;0.73;0.73;;;;;9.40;95639.00;;;;5054547;28;20211;-58
2022/12/24 02:49:12;;;;;;;0.80;0.80;;;;;9.20;95634.00;;;;5054048;28;20227;-57
2022/12/24 02:51:40;;;;;;;13.53;0.80;;;;;9.30;95632.00;;;;5054392;28;20192;-57
2022/12/24 02:54:08;;;;;;;0.93;0.93;;;;;9.30;95637.00;;;;5054873;28;20318;-57
2022/12/24 02:56:47;;;;;;;0.60;0.60;;;;;9.30;95633.00;;;;5054158;28;20192;-57
2022/12/24 02:59:30;;;;;;;0.50;0.50;;;;;9.30;95621.00;;;;5054038;28;20218;-57
2022/12/24 03:02:09;;;;;;;0.60;0.60;;;;;9.40;95623.00;;;;5054355;28;20332;-57
2022/12/24 03:04:48;;;;;;;1.00;1.00;;;;;9.40;95632.00;;;;5053073;28;20238;-57
2022/12/24 03:07:20;;;;;;;1.10;1.00;;;;;9.40;95639.00;;;;5053966;28;20253;-58
2022/12/24 03:09:57;;;;;;;1.07;1.07;;;;;9.30;95627.00;;;;5054358;28;20307;-57
2022/12/24 03:12:30;;;;;;;1.60;1.50;;;;;9.40;95637.00;;;;5054372;28;20211;-58
2022/12/24 03:14:58;;;;;;;3.70;0.80;;;;;9.40;95616.00;;;;5052619;28;20196;-57
2022/12/24 03:17:28;;;;;;;1.00;1.00;;;;;9.40;95616.00;;;;5053762;28;20196;-57
2022/12/24 03:19:55;;;;;;;4.60;1.90;;;;;9.30;95634.00;;;;5053867;28;20577;-56
2022/12/24 03:22:25;;;;;;;2.77;0.97;;;;;9.50;95648.00;;;;5053986;28;20275;-56
2022/12/24 03:24:52;;;;;;;1.07;1.07;;;;;9.40;95641.00;;;;5053588;28;20192;-56
2022/12/24 03:27:20;;;;;;;1.70;0.70;;;;;9.50;95652.00;;;;5053491;28;20250;-57
2022/12/24 03:29:48;;;;;;;12.37;1.50;;;;;9.40;95636.00;;;;5053724;28;20211;-57
2022/12/24 03:32:15;;;;;;;2.00;1.90;;;;;9.40;95641.00;;;;5053461;28;20219;-58
2022/12/24 03:34:44;;;;;;;1.77;1.63;;;;;9.40;95622.00;;;;5053748;28;20191;-57
2022/12/24 03:37:11;;;;;;;0.60;0.60;;;;;9.50;95635.00;;;;5053395;28;20195;-57
2022/12/24 03:39:39;;;;;;;3.73;1.60;;;;;9.50;95658.00;;;;5053328;28;20216;-57
2022/12/24 03:42:06;;;;;;;0.50;0.50;;;;;9.60;95651.00;;;;5053340;28;20254;-57
2022/12/24 03:44:33;;;;;;;1.00;1.00;;;;;9.70;95668.00;;;;5053569;28;20663;-57
2022/12/24 03:47:01;;;;;;;1.43;1.40;;;;;9.70;95655.00;;;;5053320;28;20199;-57
2022/12/24 03:49:28;;;;;;;1.00;1.00;;;;;9.60;95662.00;;;;5053489;28;20301;-57
2022/12/24 03:51:57;;;;;;;0.50;0.50;;;;;9.40;95658.00;;;;5053660;28;20188;-57
2022/12/24 03:54:24;;;;;;;0.90;0.90;;;;;9.50;95654.00;;;;5053187;28;20196;-57
2022/12/24 03:56:52;;;;;;;0.60;0.60;;;;;9.50;95649.00;;;;5053178;28;20655;-57
2022/12/24 03:59:19;;;;;;;1.00;1.00;;;;;9.20;95672.00;;;;5053037;28;20270;-57
2022/12/24 04:01:47;;;;;;;0.83;0.83;;;;;8.90;95656.00;;;;5053090;28;20200;-57
2022/12/24 04:04:14;;;;;;;0.93;0.93;;;;;9.10;95657.00;;;;5053272;28;20199;-57
2022/12/24 04:06:41;;;;;;;0.70;0.70;;;;;8.90;95661.00;;;;5053531;28;20218;-57
2022/12/24 04:09:10;;;;;;;1.50;0.90;;;;;8.90;95662.00;;;;5051735;28;20223;-57
2022/12/24 04:11:38;;;;;;;0.53;0.53;;;;;8.70;95664.00;;;;5052972;28;20200;-57
2022/12/24 04:14:05;;;;;;;0.60;0.60;;;;;8.90;95670.00;;;;5052905;28;20212;-57
2022/12/24 04:16:32;;;;;;;0.43;0.43;;;;;8.80;95674.00;;;;5053033;28;20239;-57
2022/12/24 04:19:00;;;;;;;1.27;0.77;;;;;8.80;95680.00;;;;5052863;28;20245;-57
2022/12/24 04:21:27;;;;;;;2.10;1.53;;;;;9.00;95688.00;;;;5052920;28;20318;-58
2022/12/24 04:23:55;;;;;;;0.90;0.90;;;;;9.00;95677.00;;;;5052922;28;20587;-57
2022/12/24 04:26:23;;;;;;;1.03;1.03;;;;;9.10;95670.00;;;;5052973;28;20200;-57
2022/12/24 04:28:51;;;;;;;0.83;0.83;;;;;9.20;95670.00;;;;5052739;28;20196;-57
2022/12/24 04:31:18;;;;;;;2.43;0.83;;;;;9.10;95685.00;;;;5052807;28;20192;-57
2022/12/24 04:33:46;;;;;;;0.60;0.60;;;;;9.00;95683.00;;;;5052831;28;20274;-57
2022/12/24 04:36:16;;;;;;;1.43;1.33;;;;;9.00;95678.00;;;;5053283;28;20257;-56
2022/12/24 04:38:44;;;;;;;6.70;1.13;;;;;9.00;95702.00;;;;5052966;28;20279;-58
2022/12/24 04:41:13;;;;;;;0.80;0.80;;;;;9.10;95700.00;;;;5056768;28;20232;-57
2022/12/24 04:43:42;;;;;;;1.70;1.03;;;;;9.10;95694.00;;;;5056689;28;20192;-57
2022/12/24 04:46:13;;;;;;;0.93;0.93;;;;;9.20;95705.00;;;;5056726;28;20261;-56
2022/12/24 04:48:41;;;;;;;1.00;1.00;;;;;9.20;95719.00;;;;5057075;28;20188;-59
2022/12/24 04:51:10;;;;;;;0.63;0.63;;;;;9.20;95705.00;;;;5056330;28;20222;-57
2022/12/24 04:53:38;;;;;;;0.80;0.80;;;;;9.10;95724.00;;;;5056391;28;20212;-57
2022/12/24 04:56:10;;;;;;;0.50;0.50;;;;;9.10;95725.00;;;;5056700;28;20215;-56
2022/12/24 04:58:37;;;;;;;0.50;0.50;;;;;9.10;95726.00;;;;5056450;28;20222;-66
2022/12/24 05:01:08;;;;;;;1.27;1.17;;;;;9.30;95744.00;;;;5056191;28;20683;-57
2022/12/24 05:03:36;;;;;;;0.50;0.50;;;;;9.40;95737.00;;;;5056633;28;20203;-57
2022/12/24 05:06:04;;;;;;;0.60;0.60;;;;;9.50;95740.00;;;;5056497;28;20566;-59
2022/12/24 05:08:32;;;;;;;0.70;0.70;;;;;9.40;95727.00;;;;5056768;28;20705;-57
2022/12/24 05:11:01;;;;;;;0.60;0.60;;;;;9.20;95722.00;;;;5054904;28;20323;-63
2022/12/24 05:13:29;;;;;;;0.83;0.83;;;;;9.40;95732.00;;;;5056099;28;20243;-57
2022/12/24 05:15:56;;;;;;;5.23;1.37;;;;;9.40;95733.00;;;;5056011;28;20196;-57
2022/12/24 05:18:25;;;;;;;0.50;0.50;;;;;9.30;95744.00;;;;5056021;28;20557;-57
2022/12/24 05:20:53;;;;;;;0.63;0.63;;;;;9.20;95738.00;;;;5055886;28;20703;-58
2022/12/24 05:26:24;;;;;;;0.50;0.50;;;;;9.40;95732.00;;;;5038327;28;20571;-57
2022/12/24 05:28:53;;;;;;;0.70;0.70;;;;;9.40;95731.00;;;;5056060;28;20195;-57
2022/12/24 05:31:21;;;;;;;0.50;0.50;;;;;9.30;95750.00;;;;5054496;28;20651;-57
2022/12/24 05:33:50;;;;;;;0.50;0.50;;;;;9.30;95732.00;;;;5055644;28;20221;-57
2022/12/24 05:36:17;;;;;;;4.87;1.73;;;;;9.50;95709.00;;;;5056156;28;20192;-57
2022/12/24 05:38:45;;;;;;;2.23;1.50;;;;;9.30;95722.00;;;;5055518;28;20655;-57
2022/12/24 05:41:12;;;;;;;0.50;0.50;;;;;9.30;95725.00;;;;5056300;28;20615;-57
2022/12/24 05:43:40;;;;;;;0.60;0.60;;;;;9.30;95720.00;;;;5055384;28;20651;-57
2022/12/24 05:46:09;;;;;;;0.70;0.70;;;;;9.20;95724.00;;;;5055998;28;20200;-56
2022/12/24 05:48:37;;;;;;;0.90;0.90;;;;;9.00;95720.00;;;;5055425;28;20242;-56
2022/12/24 05:51:08;;;;;;;1.07;1.07;;;;;8.90;95721.00;;;;5055159;28;20265;-56
2022/12/24 05:53:36;;;;;;;1.17;1.17;;;;;8.90;95727.00;;;;5055278;28;20196;-56
2022/12/24 05:56:05;;;;;;;1.63;1.53;;;;;9.10;95716.00;;;;5055321;28;20202;-56
2022/12/24 05:58:32;;;;;;;1.43;1.33;;;;;9.00;95724.00;;;;5055227;28;20250;-56
2022/12/24 06:01:00;;;;;;;0.50;0.50;;;;;9.20;95728.00;;;;5055150;28;20273;-56
2022/12/24 06:03:28;;;;;;;0.57;0.57;;;;;9.30;95714.00;;;;5055405;28;20183;-57
2022/12/24 06:06:00;;;;;;;0.93;0.93;;;;;9.20;95732.00;;;;5055704;28;20203;-57
2022/12/24 06:08:29;;;;;;;0.73;0.63;;;;;9.20;95728.00;;;;5055022;28;20196;-58
2022/12/24 06:10:58;;;;;;;1.43;1.23;;;;;9.20;95733.00;;;;5055015;28;20216;-58
2022/12/24 06:13:26;;;;;;;0.70;0.70;;;;;9.30;95720.00;;;;5055148;28;20261;-57
2022/12/24 06:15:55;;;;;;;1.07;1.00;;;;;9.20;95711.00;;;;5055205;28;20192;-57
2022/12/24 06:18:23;;;;;;;0.73;0.73;;;;;9.20;95720.00;;;;5055057;28;20288;-57
2022/12/24 06:20:51;;;;;;;0.63;0.63;;;;;9.20;95719.00;;;;5055041;28;20208;-56
2022/12/24 06:23:19;;;;;;;2.30;0.97;;;;;9.10;95729.00;;;;5055080;28;20274;-56
2022/12/24 06:25:48;;;;;;;0.90;0.90;;;;;9.10;95722.00;;;;5053512;28;20204;-56
2022/12/24 06:28:16;;;;;;;5.40;1.70;;;;;9.10;95733.00;;;;5055088;28;20196;-57
2022/12/24 06:30:47;;;;;;;0.90;0.90;;;;;9.10;95740.00;;;;5054876;28;20212;-57
2022/12/24 06:33:16;;;;;;;0.53;0.53;;;;;8.90;95739.00;;;;5054876;28;20200;-57
2022/12/24 06:35:44;;;;;;;1.37;1.27;;;;;8.80;95735.00;;;;5054532;28;20200;-58
2022/12/24 06:38:11;;;;;;;0.77;0.77;;;;;8.80;95758.00;;;;5053272;28;20231;-57
2022/12/24 06:40:39;;;;;;;0.67;0.67;;;;;8.80;95757.00;;;;5054367;28;20272;-57
2022/12/24 06:43:08;;;;;;;1.17;1.00;;;;;8.80;95751.00;;;;5054270;28;20675;-57
2022/12/24 06:45:36;;;;;;;6.33;2.40;;;;;8.80;95746.00;;;;5054336;28;20677;-57
2022/12/24 06:48:03;;;;;;;0.63;0.63;;;;;8.90;95750.00;;;;5054387;28;20200;-57
2022/12/24 06:50:32;;;;;;;1.73;1.20;;;;;8.90;95764.00;;;;5054041;28;20228;-58
2022/12/24 06:52:59;;;;;;;0.67;0.67;;;;;8.80;95774.00;;;;5054148;28;20192;-58
2022/12/24 06:55:27;;;;;;;2.60;2.40;;;;;8.70;95770.00;;;;5054040;28;20192;-57
2022/12/24 06:57:54;;;;;;;1.00;1.00;;;;;8.60;95777.00;;;;5054394;28;20192;-57
2022/12/24 07:00:23;;;;;;;0.70;0.70;;;;;8.70;95778.00;;;;5053983;28;20216;-58
2022/12/24 07:02:51;;;;;;;6.67;1.03;;;;;8.80;95778.00;;;;5053529;28;20196;-58
2022/12/24 07:05:18;;;;;;;0.83;0.83;;;;;8.70;95780.00;;;;5054018;28;20188;-57
2022/12/24 07:07:46;;;;;;;0.50;0.50;;;;;8.60;95790.00;;;;5053934;28;20196;-58
2022/12/24 07:10:15;;;;;;;0.97;0.93;;;;;8.70;95783.00;;;;5053846;28;20226;-58
2022/12/24 07:12:43;;;;;;;0.53;0.53;;;;;8.70;95793.00;;;;5053843;28;20661;-57
2022/12/24 07:15:11;;;;;;;0.97;0.97;;;;;8.80;95790.00;;;;5053687;28;20687;-57
2022/12/24 07:17:40;;;;;;;0.90;0.90;;;;;8.70;95794.00;;;;5053916;28;20192;-58
2022/12/24 07:20:12;;;;;;;0.50;0.50;;;;;8.60;95802.00;;;;5053714;28;20208;-57
2022/12/24 07:22:39;;;;;;;0.90;0.83;;;;;8.60;95802.00;;;;5054042;28;20218;-58
2022/12/24 07:25:08;;;;;;;1.13;1.13;;;;;8.70;95804.00;;;;5053530;28;20196;-56
2022/12/24 07:27:35;;;;;;;1.13;1.13;;;;;8.70;95809.00;;;;5053843;28;20192;-57
2022/12/24 07:30:03;;;;;;;2.70;1.53;;;;;8.60;95813.00;;;;5053593;28;20277;-56
2022/12/24 07:32:30;;;;;;;2.33;1.13;;;;;8.50;95813.00;;;;5054013;28;20203;-57
2022/12/24 07:34:59;;;;;;;0.40;0.40;;;;;8.40;95813.00;;;;5053335;28;20220;-57
2022/12/24 07:37:27;;;;;;;0.50;0.50;;;;;8.60;95818.00;;;;5053433;28;20192;-57
2022/12/24 07:39:54;;;;;;;1.83;0.70;;;;;8.50;95817.00;;;;5053241;28;20223;-57
2022/12/24 07:42:22;;;;;;;2.50;1.27;;;;;8.50;95816.00;;;;5053327;28;20196;-58
2022/12/24 07:44:49;;;;;;;14.57;0.97;;;;;8.60;95828.00;;;;5053260;28;20191;-57
2022/12/24 07:47:16;;;;;;;1.07;0.97;;;;;8.60;95834.00;;;;5053236;28;20670;-57
2022/12/24 07:49:44;;;;;;;1.80;1.30;;;;;8.60;95834.00;;;;5052774;28;20232;-56
2022/12/24 07:52:13;;;;;;;0.80;0.80;;;;;8.70;95833.00;;;;5053653;28;20195;-56
2022/12/24 07:54:40;;;;;;;0.80;0.80;;;;;8.80;95849.00;;;;5052944;28;20240;-56
2022/12/24 07:57:08;;;;;;;1.73;1.63;;;;;9.10;95855.00;;;;5053091;28;20678;-56
2022/12/24 07:59:35;;;;;;;0.80;0.80;;;;;9.00;95848.00;;;;5052952;28;20293;-56
2022/12/24 08:02:03;;;;;;;1.47;1.37;;;;;8.90;95843.00;;;;5052967;28;20196;-56
2022/12/24 08:04:35;;;;;;;1.27;1.27;;;;;8.90;95838.00;;;;5052957;28;20196;-56
2022/12/24 08:07:02;;;;;;;1.47;0.90;;;;;9.10;95836.00;;;;5053232;28;20246;-57
2022/12/24 08:09:33;;;;;;;16.13;3.23;;;;;9.10;95846.00;;;;5051613;28;20254;-57
2022/12/24 08:12:02;;;;;;;0.70;0.70;;;;;9.30;95850.00;;;;5053343;28;20512;-57
2022/12/24 08:14:30;;;;;;;1.90;1.73;;;;;9.20;95856.00;;;;5054487;28;20246;-57
2022/12/24 08:16:57;;;;;;;0.50;0.50;;;;;9.10;95859.00;;;;5057581;28;20258;-57
2022/12/24 08:19:25;;;;;;;0.80;0.80;;;;;9.10;95856.00;;;;5057273;28;20211;-57
2022/12/24 08:21:52;;;;;;;0.60;0.60;;;;;9.20;95860.00;;;;5057070;28;20192;-57
2022/12/24 08:24:20;;;;;;;1.10;1.10;;;;;9.10;95858.00;;;;5057012;28;20669;-58
2022/12/24 08:26:48;;;;;;;0.93;0.93;;;;;9.20;95866.00;;;;5057006;28;20192;-57
2022/12/24 08:29:16;;;;;;;1.57;1.50;;;;;9.30;95869.00;;;;5057464;28;20219;-57
2022/12/24 08:31:43;;;;;;;4.23;1.47;;;;;9.30;95868.00;;;;5057192;28;20250;-57
2022/12/24 08:34:11;;;;;;;5.93;1.37;;;;;9.30;95883.00;;;;5057423;28;20211;-57
2022/12/24 08:36:39;;;;;;;0.50;0.50;;;;;9.20;95874.00;;;;5056743;28;20196;-57
2022/12/24 08:39:07;;;;;;;0.60;0.60;;;;;9.20;95890.00;;;;5057183;28;20694;-57
2022/12/24 08:41:35;;;;;;;1.33;1.20;;;;;9.20;95880.00;;;;5057444;28;20286;-57
2022/12/24 08:44:04;;;;;;;0.70;0.70;;;;;9.20;95876.00;;;;5056795;28;20192;-56
2022/12/24 08:46:31;;;;;;;4.40;1.77;;;;;9.20;95883.00;;;;5057354;28;20204;-56
2022/12/24 08:48:59;;;;;;;1.03;1.03;;;;;9.10;95882.00;;;;5056314;28;20246;-56
2022/12/24 08:51:26;;;;;;;1.03;1.03;;;;;9.20;95895.00;;;;5057031;28;20192;-56
2022/12/24 08:53:54;;;;;;;2.17;0.80;;;;;9.20;95894.00;;;;5056363;28;20215;-57
2022/12/24 08:56:21;;;;;;;1.00;1.00;;;;;9.30;95886.00;;;;5056315;28;20200;-56
2022/12/24 08:58:49;;;;;;;0.80;0.80;;;;;9.30;95889.00;;;;5056301;28;20200;-57
2022/12/24 09:01:19;;;;;;;6.30;1.17;;;;;9.40;95891.00;;;;5056348;28;20242;-57
2022/12/24 09:03:47;;;;;;;3.60;2.10;;;;;9.40;95895.00;;;;5056341;28;20187;-57
2022/12/24 09:06:15;;;;;;;1.17;0.90;;;;;9.40;95900.00;;;;5056479;28;20626;-56
2022/12/24 09:08:43;;;;;;;0.93;0.93;;;;;9.40;95909.00;;;;5056330;28;20558;-57
2022/12/24 09:11:13;;;;;;;1.53;1.27;;;;;9.40;95902.00;;;;5056128;28;20188;-57
2022/12/24 09:13:41;;;;;;;1.00;1.00;;;;;9.50;95912.00;;;;5056024;28;20196;-58
2022/12/24 09:16:09;;;;;;;0.93;0.93;;;;;9.50;95919.00;;;;5056070;28;20239;-57
2022/12/24 09:18:38;;;;;;;1.83;1.73;;;;;9.70;95922.00;;;;5056028;28;20226;-57
2022/12/24 09:21:08;;;;;;;0.60;0.60;;;;;9.70;95929.00;;;;5056190;28;20586;-57
2022/12/24 09:23:38;;;;;;;0.80;0.80;;;;;9.80;95930.00;;;;5056328;28;20210;-59
2022/12/24 09:26:07;;;;;;;2.23;0.93;;;;;9.80;95932.00;;;;5055569;28;20232;-57
2022/12/24 09:28:34;;;;;;;0.50;0.50;;;;;9.90;95934.00;;;;5055966;28;20192;-57
2022/12/24 09:31:04;;;;;;;1.93;1.03;;;;;9.80;95950.00;;;;5055721;28;20212;-57
2022/12/24 09:33:34;;;;;;;0.80;0.80;;;;;9.80;95945.00;;;;5055788;28;20196;-57
2022/12/24 09:36:04;;;;;;;1.00;1.00;;;;;9.70;95939.00;;;;5056006;28;20230;-58
2022/12/24 09:38:31;;;;;;;0.70;0.70;;;;;9.80;95942.00;;;;5055765;28;20192;-57
2022/12/24 09:41:01;;;;;;;1.07;1.07;;;;;9.80;95936.00;;;;5056577;28;20261;-57
2022/12/24 09:43:31;;;;;;;0.50;0.50;;;;;9.90;95933.00;;;;5055615;28;20254;-57
2022/12/24 09:46:09;;;;;;;3.43;1.67;;;;;9.90;95933.00;;;;5055825;28;20169;-58
2022/12/24 09:48:41;;;;;;;1.00;1.00;;;;;9.80;95929.00;;;;5055485;28;20191;-58
2022/12/24 09:51:12;;;;;;;0.83;0.83;;;;;10.10;95921.00;;;;5055229;28;20220;-57
2022/12/24 09:53:45;;;;;;;1.17;1.10;;;;;10.40;95914.00;;;;5055747;28;20234;-58
2022/12/24 09:56:17;;;;;;;0.60;0.60;;;;;10.70;95919.00;;;;5055459;28;20188;-58
2022/12/24 09:58:48;;;;;;;1.43;1.00;;;;;10.80;95910.00;;;;5055452;28;20176;-58
2022/12/24 10:01:17;;;;;;;0.93;0.93;;;;;11.10;95933.00;;;;5055496;28;20189;-57
2022/12/24 10:03:45;;;;;;;1.00;1.00;;;;;11.00;95927.00;;;;5055196;28;20196;-57
2022/12/24 10:06:16;;;;;;;0.80;0.80;;;;;11.30;95919.00;;;;5055748;28;20200;-58
2022/12/24 10:09:00;;;;;;;0.83;0.83;;;;;11.20;95923.00;;;;5055535;28;20188;-59
2022/12/24 10:11:42;;;;;;;0.60;0.60;;;;;11.00;95929.00;;;;5053797;28;20230;-57
2022/12/24 10:14:23;;;;;;;0.97;0.97;;;;;10.70;95929.00;;;;5054978;28;20208;-57
2022/12/24 10:16:59;;;;;;;0.60;0.60;;;;;10.80;95928.00;;;;5055500;28;20268;-58
2022/12/24 10:19:38;;;;;;;0.67;0.67;;;;;10.40;95937.00;;;;5054780;28;20220;-57
2022/12/24 10:22:14;;;;;;;0.60;0.60;;;;;10.40;95939.00;;;;5055039;28;20188;-57
2022/12/24 10:24:51;;;;;;;0.60;0.60;;;;;10.40;95942.00;;;;5055026;28;20175;-58
2022/12/24 10:27:21;;;;;;;1.07;1.07;;;;;10.30;95950.00;;;;5054933;28;20558;-56
2022/12/24 10:29:52;;;;;;;0.70;0.70;;;;;10.30;95951.00;;;;5054755;28;20216;-56
2022/12/24 10:32:26;;;;;;;0.80;0.80;;;;;10.40;95967.00;;;;5054920;28;20654;-56
2022/12/24 10:34:59;;;;;;;0.60;0.60;;;;;10.40;95958.00;;;;5054593;28;20204;-56
2022/12/24 10:37:29;;;;;;;2.40;1.00;;;;;10.30;95959.00;;;;5053912;28;20238;-56
2022/12/24 10:39:57;;;;;;;1.00;1.00;;;;;10.40;95950.00;;;;5054400;28;20277;-57
2022/12/24 10:42:32;;;;;;;10.87;1.40;;;;;10.60;95949.00;;;;5054467;28;20257;-57
2022/12/24 10:45:04;;;;;;;9.00;1.47;;;;;10.60;95946.00;;;;5054416;28;20184;-57
2022/12/24 10:47:34;;;;;;;0.80;0.80;;;;;10.70;95945.00;;;;5054599;28;20176;-58
2022/12/24 10:50:05;;;;;;;1.00;1.00;;;;;10.90;95957.00;;;;5054014;28;20564;-57
2022/12/24 10:52:38;;;;;;;0.70;0.70;;;;;10.90;95957.00;;;;5054536;28;20185;-57
2022/12/24 10:55:10;;;;;;;0.70;0.70;;;;;10.90;95954.00;;;;5054123;28;20204;-57
2022/12/24 10:57:40;;;;;;;0.50;0.50;;;;;10.80;95950.00;;;;5054268;28;20246;-57
2022/12/24 11:00:18;;;;;;;0.67;0.67;;;;;10.70;95956.00;;;;5054445;28;20212;-57
2022/12/24 11:02:48;;;;;;;0.87;0.87;;;;;10.70;95958.00;;;;5054613;28;20184;-56
2022/12/24 11:05:30;;;;;;;0.67;0.67;;;;;10.60;95952.00;;;;5053943;28;20204;-56
2022/12/24 11:08:02;;;;;;;1.10;1.00;;;;;10.60;95956.00;;;;5054202;28;20222;-56
2022/12/24 11:10:30;;;;;;;0.50;0.50;;;;;10.70;95952.00;;;;5053934;28;20211;-56
2022/12/24 11:12:58;;;;;;;0.67;0.67;;;;;10.60;95960.00;;;;5053853;28;20188;-56
2022/12/24 11:15:30;;;;;;;1.23;0.63;;;;;10.60;95963.00;;;;5053744;28;20725;-56
2022/12/24 11:18:02;;;;;;;0.60;0.60;;;;;10.70;95973.00;;;;5054084;28;20184;-56
2022/12/24 11:20:33;;;;;;;0.73;0.73;;;;;10.50;95961.00;;;;5053943;28;20596;-56
2022/12/24 11:23:02;;;;;;;0.90;0.90;;;;;10.50;95960.00;;;;5053705;28;20191;-56
2022/12/24 11:25:34;;;;;;;0.53;0.53;;;;;10.90;95960.00;;;;5053995;28;20252;-56
2022/12/24 11:28:12;;;;;;;17.73;1.63;;;;;10.90;95960.00;;;;5053654;28;20285;-56
2022/12/24 11:30:39;;;;;;;1.07;1.07;;;;;10.90;95957.00;;;;5053537;28;20270;-56
2022/12/24 11:33:18;;;;;;;0.87;0.87;;;;;10.90;95964.00;;;;5053840;28;20203;-56
2022/12/24 11:35:49;;;;;;;4.70;1.50;;;;;11.30;95957.00;;;;5053773;28;20200;-56
2022/12/24 11:38:23;;;;;;;0.90;0.90;;;;;11.60;95942.00;;;;5053830;28;20192;-56
2022/12/24 11:40:58;;;;;;;0.73;0.73;;;;;11.70;95951.00;;;;5053446;28;20220;-56
2022/12/24 11:43:43;;;;;;;4.80;1.60;;;;;11.60;95952.00;;;;5053791;28;20207;-56
2022/12/24 11:46:14;;;;;;;6.00;1.23;;;;;11.70;95950.00;;;;5053472;28;20226;-56
2022/12/24 11:48:41;;;;;;;0.50;0.50;;;;;11.80;95951.00;;;;5052003;28;20188;-56
2022/12/24 11:51:24;;;;;;;0.60;0.60;;;;;11.90;95952.00;;;;5053187;28;20203;-56
2022/12/24 11:54:00;;;;;;;0.90;0.90;;;;;11.60;95950.00;;;;5053486;28;20176;-56
2022/12/24 11:56:36;;;;;;;0.70;0.70;;;;;11.80;95938.00;;;;5053218;28;20233;-56
2022/12/24 11:59:14;;;;;;;0.80;0.80;;;;;11.90;95948.00;;;;5053457;28;20184;-56
2022/12/24 12:01:52;;;;;;;0.50;0.50;;;;;11.90;95953.00;;;;5053210;28;20176;-56
2022/12/24 12:04:24;;;;;;;1.47;1.37;;;;;12.10;95954.00;;;;5053424;28;20524;-56
2022/12/24 12:06:55;;;;;;;0.77;0.77;;;;;12.00;95944.00;;;;5053687;28;20192;-56
2022/12/24 12:09:28;;;;;;;1.33;0.83;;;;;11.50;95949.00;;;;5053056;28;20218;-56
2022/12/24 12:12:00;;;;;;;1.33;1.23;;;;;11.20;95966.00;;;;5053306;28;20180;-56
2022/12/24 12:14:31;;;;;;;0.90;0.90;;;;;11.30;95946.00;;;;5053319;28;20254;-56
2022/12/24 12:17:03;;;;;;;0.50;0.50;;;;;11.40;95943.00;;;;5052994;28;20172;-56
2022/12/24 12:19:39;;;;;;;0.80;0.80;;;;;11.80;95947.00;;;;5051601;28;20725;-56
2022/12/24 12:22:16;;;;;;;0.60;0.60;;;;;11.80;95949.00;;;;5053415;28;20203;-56
2022/12/24 12:24:50;;;;;;;1.70;1.13;;;;;12.20;95951.00;;;;5053184;28;20187;-56
2022/12/24 12:27:27;;;;;;;0.60;0.60;;;;;12.50;95946.00;;;;5052920;28;20168;-56
2022/12/24 12:30:00;;;;;;;0.70;0.70;;;;;12.60;95938.00;;;;5053099;28;20217;-56
2022/12/24 12:32:35;;;;;;;0.80;0.80;;;;;13.30;95939.00;;;;5053248;28;20577;-56
2022/12/24 12:35:14;;;;;;;0.50;0.50;;;;;14.90;95939.00;;;;5052787;28;20211;-56
2022/12/24 12:37:44;;;;;;;0.70;0.70;;;;;18.70;95900.00;;;;5052894;28;20180;-56
2022/12/24 12:40:16;;;;;;;1.60;1.00;;;;;17.70;95959.00;;;;5053059;28;20208;-56
2022/12/24 12:42:52;;;;;;;1.47;1.37;;;;;16.00;95962.00;;;;5052881;28;20655;-56
2022/12/24 12:45:40;;;;;;;0.93;0.70;;;;;14.10;95966.00;;;;5052818;28;20180;-56